Terminal Aerodrome Forecast
Issued by NWS

Home | Current Version | Previous Version | Text Only | Print | Product List | Glossary On
Versions: 1 2 3 4 5 6 7 8 9 10 11 12 13
000
FTUS44 KEPZ 011143
TAFDMN
TAF
KDMN 011143Z 0112/0212 VRB04KT P6SM FEW100 SCT150 BKN250
     FM011800 20007KT P6SM FEW080 FEW250
     FM020400 26009KT P6SM FEW140 SCT250=

USA.gov is the U.S. government's official web portal to all federal, state and local government web resources and services.